createdAt,value
2022-08-11T00:00:16.746Z,3.90
2022-08-11T00:02:52.664Z,4.03
2022-08-11T00:05:21.394Z,3.50
2022-08-11T00:07:53.765Z,3.33
2022-08-11T00:10:26.466Z,4.20
2022-08-11T00:13:00.120Z,3.60
2022-08-11T00:15:36.849Z,3.33
2022-08-11T00:18:04.011Z,3.90
2022-08-11T00:20:33.374Z,3.50
2022-08-11T00:23:06.174Z,4.07
2022-08-11T00:25:42.493Z,4.13
2022-08-11T00:28:32.031Z,3.40
2022-08-11T00:31:08.422Z,3.63
2022-08-11T00:33:44.627Z,3.70
2022-08-11T00:36:15.927Z,3.67
2022-08-11T00:38:45.200Z,4.00
2022-08-11T00:41:11.846Z,4.67
2022-08-11T00:43:53.759Z,4.30
2022-08-11T00:46:37.818Z,3.80
2022-08-11T00:49:23.868Z,4.17
2022-08-11T00:52:21.529Z,4.50
2022-08-11T00:54:59.867Z,3.83
2022-08-11T00:57:53.360Z,3.87
2022-08-11T01:00:23.301Z,4.17
2022-08-11T01:03:18.112Z,4.20
2022-08-11T01:06:23.345Z,3.60
2022-08-11T01:09:18.009Z,4.40
2022-08-11T01:12:18.841Z,4.03
2022-08-11T01:15:33.826Z,3.97
2022-08-11T01:18:22.407Z,3.83
2022-08-11T01:21:17.618Z,3.97
2022-08-11T01:24:05.738Z,3.57
2022-08-11T01:27:19.211Z,4.23
2022-08-11T01:30:20.627Z,3.87
2022-08-11T01:33:11.714Z,3.47
2022-08-11T01:36:42.170Z,3.90
2022-08-11T01:39:47.697Z,3.73
2022-08-11T01:43:02.490Z,3.90
2022-08-11T01:45:55.394Z,3.77
2022-08-11T01:48:40.938Z,4.70
2022-08-11T01:51:38.364Z,4.20
2022-08-11T01:54:20.483Z,4.37
2022-08-11T01:57:00.581Z,4.37
2022-08-11T01:59:38.110Z,3.60
2022-08-11T02:02:48.135Z,4.50
2022-08-11T02:05:45.966Z,4.10
2022-08-11T02:08:45.525Z,4.60
2022-08-11T02:11:37.638Z,4.00
2022-08-11T02:14:13.567Z,4.17
2022-08-11T02:17:02.328Z,4.17
2022-08-11T02:20:09.455Z,4.27
2022-08-11T02:24:04.468Z,4.77
2022-08-11T02:26:27.787Z,4.60
2022-08-11T02:29:13.641Z,4.50
2022-08-11T02:32:23.851Z,3.60
2022-08-11T02:35:02.348Z,4.57
2022-08-11T02:37:31.953Z,3.97
2022-08-11T02:39:58.551Z,4.57
2022-08-11T02:42:49.469Z,4.30
2022-08-11T02:45:31.495Z,5.17
2022-08-11T02:48:21.307Z,4.23
2022-08-11T02:50:55.077Z,4.60
2022-08-11T02:53:56.443Z,5.10
2022-08-11T02:56:52.988Z,4.07
2022-08-11T02:59:53.051Z,4.20
2022-08-11T03:02:31.318Z,4.37
2022-08-11T03:05:11.834Z,4.10
2022-08-11T03:08:08.205Z,4.50
2022-08-11T03:11:15.570Z,3.90
2022-08-11T03:14:24.360Z,4.10
2022-08-11T03:17:00.268Z,3.77
2022-08-11T03:20:00.021Z,4.80
2022-08-11T03:22:34.090Z,4.30
2022-08-11T03:25:19.611Z,4.63
2022-08-11T03:27:57.810Z,4.73
2022-08-11T03:30:41.944Z,4.47
2022-08-11T03:33:54.218Z,4.70
2022-08-11T03:37:15.147Z,3.83
2022-08-11T03:40:04.237Z,4.33
2022-08-11T03:42:46.337Z,4.60
2022-08-11T03:45:40.744Z,4.80
2022-08-11T03:48:22.881Z,4.13
2022-08-11T03:51:07.518Z,4.30
2022-08-11T03:54:00.497Z,4.60
2022-08-11T03:56:48.522Z,4.87
2022-08-11T03:59:28.673Z,5.17
2022-08-11T04:02:19.313Z,4.97
2022-08-11T04:05:34.183Z,4.47
2022-08-11T04:08:24.946Z,5.17
2022-08-11T04:11:28.693Z,5.03
2022-08-11T04:14:50.047Z,4.93
2022-08-11T04:17:36.720Z,4.87
2022-08-11T04:20:29.369Z,4.87
2022-08-11T04:24:35.990Z,5.33
2022-08-11T04:26:50.952Z,4.67
2022-08-11T04:30:03.345Z,4.97
2022-08-11T04:33:11.470Z,5.10
2022-08-11T04:36:09.656Z,5.33
2022-08-11T04:39:14.319Z,4.83
2022-08-11T04:42:18.212Z,4.40
2022-08-11T04:45:06.430Z,4.70
2022-08-11T04:48:37.605Z,4.87
2022-08-11T04:51:38.058Z,4.70
2022-08-11T04:54:45.289Z,5.27
2022-08-11T04:57:46.794Z,4.57
2022-08-11T05:00:36.430Z,4.67
2022-08-11T05:03:30.818Z,5.00
2022-08-11T05:06:29.630Z,4.77
2022-08-11T05:09:46.357Z,5.33
2022-08-11T05:12:36.341Z,5.23
2022-08-11T05:15:23.065Z,5.23
2022-08-11T05:18:27.504Z,5.23
2022-08-11T05:21:15.290Z,5.20
2022-08-11T05:24:05.949Z,4.97
2022-08-11T05:27:04.458Z,5.20
2022-08-11T05:30:05.890Z,5.07
2022-08-11T05:33:00.926Z,5.80
2022-08-11T05:36:00.040Z,5.13
2022-08-11T05:38:51.785Z,5.90
2022-08-11T05:41:40.807Z,6.20
2022-08-11T05:44:29.233Z,5.77
2022-08-11T05:47:15.380Z,6.17
2022-08-11T05:50:01.045Z,6.50
2022-08-11T05:52:49.233Z,4.97
2022-08-11T05:56:01.850Z,4.93
2022-08-11T05:58:42.251Z,6.10
2022-08-11T06:01:20.652Z,5.20
2022-08-11T06:04:12.733Z,4.83
2022-08-11T06:06:51.525Z,4.90
2022-08-11T06:09:48.275Z,4.47
2022-08-11T06:12:25.710Z,4.33
2022-08-11T06:14:57.910Z,4.40
2022-08-11T06:17:38.473Z,4.40
2022-08-11T06:20:12.998Z,3.87
2022-08-11T06:22:44.085Z,3.60
2022-08-11T06:25:13.093Z,4.00
2022-08-11T06:27:44.149Z,4.10
2022-08-11T06:30:14.054Z,3.70
2022-08-11T06:32:46.029Z,4.00
2022-08-11T06:35:50.076Z,4.40
2022-08-11T06:38:44.678Z,3.70
2022-08-11T06:41:30.590Z,3.70
2022-08-11T06:44:18.732Z,3.97
2022-08-11T06:46:51.357Z,4.00
2022-08-11T06:49:42.754Z,3.57
2022-08-11T06:52:45.188Z,3.60
2022-08-11T06:55:55.910Z,3.53
2022-08-11T06:58:22.539Z,3.70
2022-08-11T07:00:54.616Z,4.30
2022-08-11T07:03:22.274Z,3.10
2022-08-11T07:06:07.112Z,3.20
2022-08-11T07:09:07.615Z,3.57
2022-08-11T07:12:01.966Z,3.77
2022-08-11T07:14:49.837Z,3.53
2022-08-11T07:17:22.339Z,3.77
2022-08-11T07:20:14.833Z,3.57
2022-08-11T07:23:03.397Z,3.37
2022-08-11T07:25:50.685Z,3.63
2022-08-11T07:28:44.854Z,3.70
2022-08-11T07:31:17.605Z,4.23
2022-08-11T07:34:08.529Z,3.67
2022-08-11T07:36:44.516Z,3.13
2022-08-11T07:39:25.615Z,2.97
2022-08-11T07:41:54.117Z,3.63
2022-08-11T07:44:27.360Z,2.93
2022-08-11T07:47:16.851Z,3.27
2022-08-11T07:50:07.728Z,3.57
2022-08-11T07:52:38.048Z,3.50
2022-08-11T07:55:07.790Z,3.23
2022-08-11T07:58:15.974Z,4.10
2022-08-11T08:01:10.131Z,3.60
2022-08-11T08:03:57.050Z,3.60
2022-08-11T08:06:43.525Z,3.60
2022-08-11T08:09:29.430Z,3.43
2022-08-11T08:12:16.034Z,3.30
2022-08-11T08:15:01.615Z,3.77
2022-08-11T08:18:20.996Z,3.87
2022-08-11T08:20:42.703Z,3.70
2022-08-11T08:23:09.841Z,3.60
2022-08-11T08:25:39.797Z,3.47
2022-08-11T08:28:14.109Z,3.60
2022-08-11T08:30:48.109Z,3.10
2022-08-11T08:33:24.800Z,3.47
2022-08-11T08:36:12.160Z,3.40
2022-08-11T08:38:52.765Z,3.40
2022-08-11T08:41:32.176Z,3.23
2022-08-11T08:44:36.721Z,3.63
2022-08-11T08:46:56.631Z,4.07
2022-08-11T08:49:31.910Z,3.50
2022-08-11T08:52:26.184Z,3.10
2022-08-11T08:54:55.666Z,3.90
2022-08-11T08:57:29.017Z,3.70
2022-08-11T08:59:57.866Z,3.10
2022-08-11T09:02:33.936Z,3.27
2022-08-11T09:05:04.946Z,3.63
2022-08-11T09:07:38.589Z,3.50
2022-08-11T09:10:07.981Z,3.73
2022-08-11T09:12:38.891Z,3.40
2022-08-11T09:15:09.060Z,3.37
2022-08-11T09:17:46.979Z,3.00
2022-08-11T09:20:25.717Z,3.20
2022-08-11T09:24:07.456Z,3.47
2022-08-11T09:26:30.381Z,4.03
2022-08-11T09:28:58.996Z,3.00
2022-08-11T09:31:26.898Z,4.20
2022-08-11T09:33:55.197Z,3.37
2022-08-11T09:36:42.287Z,3.90
2022-08-11T09:39:31.219Z,3.90
2022-08-11T09:42:04.299Z,3.47
2022-08-11T09:44:50.117Z,3.53
2022-08-11T09:47:25.525Z,3.33
2022-08-11T09:50:00.149Z,3.20
2022-08-11T09:52:29.571Z,3.40
2022-08-11T09:54:56.765Z,3.30
2022-08-11T09:57:43.343Z,3.10
2022-08-11T10:00:14.088Z,3.50
2022-08-11T10:02:47.158Z,3.00
2022-08-11T10:05:41.169Z,3.25
2022-08-11T10:08:11.916Z,3.23
2022-08-11T10:10:41.109Z,2.95
2022-08-11T10:14:31.391Z,2.83
2022-08-11T10:16:15.574Z,3.15
2022-08-11T10:18:52.448Z,2.33
2022-08-11T10:21:43.944Z,2.75
2022-08-11T10:27:15.741Z,2.80
2022-08-11T10:30:01.470Z,2.97
2022-08-11T10:32:58.734Z,3.10
2022-08-11T10:35:29.599Z,2.80
2022-08-11T10:38:08.084Z,2.70
2022-08-11T10:40:39.413Z,2.80
2022-08-11T10:43:13.142Z,2.95
2022-08-11T10:46:01.495Z,3.13
2022-08-11T10:48:32.030Z,3.22
2022-08-11T10:51:14.518Z,3.30
2022-08-11T10:54:05.406Z,2.50
2022-08-11T10:56:55.442Z,2.78
2022-08-11T10:59:24.418Z,3.00
2022-08-11T11:01:53.335Z,2.90
2022-08-11T11:04:40.207Z,3.38
2022-08-11T11:07:31.482Z,3.13
2022-08-11T11:10:04.626Z,3.07
2022-08-11T11:12:53.813Z,2.77
2022-08-11T11:15:40.787Z,2.77
2022-08-11T11:18:16.174Z,3.03
2022-08-11T11:20:47.861Z,3.07
2022-08-11T11:23:23.948Z,3.30
2022-08-11T11:26:27.050Z,3.07
2022-08-11T11:29:12.888Z,3.17
2022-08-11T11:32:01.501Z,3.10
2022-08-11T11:35:04.130Z,3.00
2022-08-11T11:37:36.381Z,3.23
2022-08-11T11:40:12.525Z,3.27
2022-08-11T11:42:45.417Z,3.67
2022-08-11T11:45:24.104Z,3.20
2022-08-11T11:47:54.296Z,2.80
2022-08-11T11:50:31.793Z,3.37
2022-08-11T11:53:01.610Z,3.23
2022-08-11T11:55:29.473Z,3.20
2022-08-11T11:58:18.647Z,3.63
2022-08-11T12:01:05.282Z,3.37
2022-08-11T12:03:34.386Z,3.37
2022-08-11T12:06:03.297Z,3.83
2022-08-11T12:08:31.212Z,2.80
2022-08-11T12:11:29.480Z,2.80
2022-08-11T12:14:00.395Z,2.83
2022-08-11T12:16:34.558Z,3.30
2022-08-11T12:19:08.290Z,2.70
2022-08-11T12:21:37.097Z,3.07
2022-08-11T12:24:28.546Z,3.10
2022-08-11T12:27:17.630Z,3.07
2022-08-11T12:30:05.785Z,3.00
2022-08-11T12:32:36.270Z,3.00
2022-08-11T12:35:05.250Z,3.45
2022-08-11T12:37:36.438Z,3.10
2022-08-11T12:40:49.617Z,3.53
2022-08-11T12:43:41.005Z,3.40
2022-08-11T12:46:10.384Z,4.00
2022-08-11T12:49:03.253Z,3.50
2022-08-11T12:52:01.387Z,3.13
2022-08-11T12:54:43.646Z,3.13
2022-08-11T12:57:45.790Z,4.30
2022-08-11T13:00:34.691Z,4.33
2022-08-11T13:03:21.580Z,3.47
2022-08-11T13:05:52.307Z,3.50
2022-08-11T13:08:23.171Z,4.27
2022-08-11T13:11:09.665Z,3.80
2022-08-11T13:13:55.312Z,3.10
2022-08-11T13:16:27.878Z,3.37
2022-08-11T13:18:56.803Z,3.60
2022-08-11T13:21:24.113Z,3.30
2022-08-11T13:24:00.734Z,3.63
2022-08-11T13:26:48.081Z,3.60
2022-08-11T13:29:28.690Z,3.43
2022-08-11T13:31:59.882Z,3.53
2022-08-11T13:34:30.972Z,3.50
2022-08-11T13:37:01.534Z,3.80
2022-08-11T13:39:30.919Z,4.03
2022-08-11T13:42:00.435Z,4.00
2022-08-11T13:44:30.205Z,3.80
2022-08-11T13:47:01.231Z,3.88
2022-08-11T13:49:29.552Z,3.50
2022-08-11T13:51:58.446Z,3.40
2022-08-11T13:54:32.064Z,3.53
2022-08-11T13:57:09.111Z,3.27
2022-08-11T13:59:49.934Z,3.28
2022-08-11T14:02:29.346Z,3.27
2022-08-11T14:04:58.919Z,4.07
2022-08-11T14:07:35.326Z,3.58
2022-08-11T14:10:04.081Z,3.97
2022-08-11T14:12:53.047Z,4.23
2022-08-11T14:15:21.367Z,4.05
2022-08-11T14:17:56.068Z,3.70
2022-08-11T14:20:38.013Z,3.93
2022-08-11T14:23:08.062Z,4.15
2022-08-11T14:25:59.537Z,3.08
2022-08-11T14:28:30.943Z,3.90
2022-08-11T14:31:02.877Z,3.47
2022-08-11T14:33:58.062Z,3.70
2022-08-11T14:36:22.740Z,3.58
2022-08-11T14:38:50.082Z,3.40
2022-08-11T14:41:36.998Z,3.27
2022-08-11T14:44:43.662Z,3.30
2022-08-11T14:47:23.066Z,3.40
2022-08-11T14:49:58.278Z,5.25
2022-08-11T14:52:37.692Z,3.47
2022-08-11T14:55:23.906Z,3.70
2022-08-11T14:57:54.852Z,3.85
2022-08-11T15:00:24.051Z,3.33
2022-08-11T15:03:09.970Z,3.53
2022-08-11T15:05:56.092Z,3.50
2022-08-11T15:08:46.033Z,3.33
2022-08-11T15:11:33.946Z,3.20
2022-08-11T15:14:03.709Z,3.33
2022-08-11T15:16:49.597Z,3.20
2022-08-11T15:19:21.139Z,4.00
2022-08-11T15:22:08.239Z,3.20
2022-08-11T15:24:36.464Z,3.30
2022-08-11T15:27:30.867Z,3.10
2022-08-11T15:30:32.927Z,3.65
2022-08-11T15:33:30.722Z,3.87
2022-08-11T15:36:17.587Z,3.22
2022-08-11T15:38:55.305Z,3.70
2022-08-11T15:41:54.337Z,4.15
2022-08-11T15:45:04.652Z,4.22
2022-08-11T15:48:05.193Z,4.15
2022-08-11T15:50:37.532Z,5.88
2022-08-11T15:53:31.807Z,3.78
2022-08-11T15:56:00.086Z,4.40
2022-08-11T15:59:40.776Z,3.70
2022-08-11T16:01:59.408Z,3.53
2022-08-11T16:04:30.080Z,3.22
2022-08-11T16:07:11.532Z,3.65
2022-08-11T16:10:07.484Z,3.30
2022-08-11T16:12:41.546Z,3.83
2022-08-11T16:15:29.433Z,4.20
2022-08-11T16:18:06.039Z,4.38
2022-08-11T16:20:34.764Z,3.55
2022-08-11T16:23:04.693Z,3.50
2022-08-11T16:27:04.997Z,3.75
2022-08-11T16:28:23.494Z,3.70
2022-08-11T16:30:52.175Z,3.88
2022-08-11T16:33:48.772Z,3.00
2022-08-11T16:36:30.438Z,4.07
2022-08-11T16:38:59.310Z,3.33
2022-08-11T16:41:47.984Z,3.33
2022-08-11T16:44:37.773Z,3.20
2022-08-11T16:47:13.213Z,3.20
2022-08-11T16:49:52.570Z,3.63
2022-08-11T16:52:24.427Z,3.67
2022-08-11T16:54:52.674Z,3.63
2022-08-11T16:57:45.746Z,3.45
2022-08-11T17:00:16.282Z,2.65
2022-08-11T17:03:08.113Z,3.78
2022-08-11T17:05:55.241Z,3.40
2022-08-11T17:08:57.628Z,4.00
2022-08-11T17:11:47.773Z,4.32
2022-08-11T17:14:35.727Z,4.25
2022-08-11T17:17:06.124Z,3.50
2022-08-11T17:20:42.070Z,3.30
2022-08-11T17:22:42.441Z,3.38
2022-08-11T17:25:11.105Z,3.67
2022-08-11T17:27:39.678Z,3.20
2022-08-11T17:30:08.548Z,3.13
2022-08-11T17:33:00.713Z,3.50
2022-08-11T17:35:38.725Z,3.80
2022-08-11T17:38:13.228Z,3.23
2022-08-11T17:41:23.221Z,3.55
2022-08-11T17:44:09.657Z,3.77
2022-08-11T17:46:56.940Z,3.67
2022-08-11T17:49:24.950Z,3.75
2022-08-11T17:52:11.713Z,3.93
2022-08-11T17:55:01.282Z,3.60
2022-08-11T17:57:51.829Z,3.90
2022-08-11T18:00:18.577Z,3.77
2022-08-11T18:03:06.597Z,3.97
2022-08-11T18:05:36.974Z,3.40
2022-08-11T18:08:26.720Z,4.03
2022-08-11T18:11:22.365Z,4.17
2022-08-11T18:14:24.333Z,3.50
2022-08-11T18:17:09.627Z,3.77
2022-08-11T18:19:54.926Z,3.40
2022-08-11T18:22:46.848Z,3.80
2022-08-11T18:25:35.919Z,3.70
2022-08-11T18:28:27.242Z,3.70
2022-08-11T18:31:17.827Z,3.23
2022-08-11T18:34:09.844Z,3.92
2022-08-11T18:37:09.968Z,3.63
2022-08-11T18:40:12.011Z,4.13
2022-08-11T18:43:00.374Z,3.30
2022-08-11T18:45:46.294Z,3.63
2022-08-11T18:48:40.781Z,3.47
2022-08-11T18:51:36.799Z,2.90
2022-08-11T18:54:28.034Z,3.23
2022-08-11T18:57:16.367Z,3.40
2022-08-11T19:00:03.761Z,3.07
2022-08-11T19:02:50.748Z,3.83
2022-08-11T19:06:32.059Z,3.53
2022-08-11T19:08:49.673Z,4.10
2022-08-11T19:11:42.532Z,4.30
2022-08-11T19:14:30.739Z,4.27
2022-08-11T19:17:45.192Z,4.83
2022-08-11T19:20:27.329Z,4.33
2022-08-11T19:23:14.842Z,5.13
2022-08-11T19:26:02.273Z,5.40
2022-08-11T19:28:48.179Z,5.70
2022-08-11T19:31:34.205Z,5.20
2022-08-11T19:34:20.241Z,5.43
2022-08-11T19:37:06.816Z,4.77
2022-08-11T19:39:53.396Z,4.77
2022-08-11T19:42:39.996Z,4.63
2022-08-11T19:45:26.751Z,4.50
2022-08-11T19:48:31.192Z,4.57
2022-08-11T19:51:19.053Z,3.83
2022-08-11T19:54:07.320Z,4.40
2022-08-11T19:56:53.816Z,5.53
2022-08-11T19:59:41.227Z,4.20
2022-08-11T20:02:26.762Z,4.27
2022-08-11T20:05:12.256Z,3.63
2022-08-11T20:07:58.578Z,4.30
2022-08-11T20:10:45.988Z,4.27
2022-08-11T20:13:33.544Z,4.00
2022-08-11T20:16:21.284Z,3.90
2022-08-11T20:19:09.693Z,3.60
2022-08-11T20:21:58.340Z,3.80
2022-08-11T20:24:43.826Z,3.90
2022-08-11T20:27:30.890Z,3.23
2022-08-11T20:30:18.800Z,3.27
2022-08-11T20:33:04.911Z,3.03
2022-08-11T20:35:52.839Z,3.60
2022-08-11T20:38:40.228Z,3.63
2022-08-11T20:41:28.803Z,3.50
2022-08-11T20:44:16.840Z,3.67
2022-08-11T20:47:04.392Z,3.50
2022-08-11T20:49:59.908Z,3.07
2022-08-11T20:52:50.441Z,3.30
2022-08-11T20:55:51.151Z,3.53
2022-08-11T21:01:46.176Z,3.70
2022-08-11T21:04:32.922Z,3.20
2022-08-11T21:07:23.661Z,3.77
2022-08-11T21:10:23.346Z,3.50
2022-08-11T21:13:26.458Z,3.70
2022-08-11T21:16:26.163Z,3.10
2022-08-11T21:19:18.670Z,3.30
2022-08-11T21:22:06.513Z,3.30
2022-08-11T21:24:52.614Z,3.83
2022-08-11T21:27:40.050Z,3.43
2022-08-11T21:30:26.091Z,3.30
2022-08-11T21:33:12.605Z,2.77
2022-08-11T21:35:58.492Z,3.20
2022-08-11T21:38:45.485Z,2.73
2022-08-11T21:41:32.974Z,3.47
2022-08-11T21:44:18.947Z,3.77
2022-08-11T21:47:05.452Z,2.97
2022-08-11T21:49:52.266Z,3.10
2022-08-11T21:52:38.028Z,2.83
2022-08-11T21:55:23.576Z,3.53
2022-08-11T21:58:10.719Z,3.00
2022-08-11T22:00:56.070Z,3.13
2022-08-11T22:03:50.327Z,2.90
2022-08-11T22:06:36.875Z,3.10
2022-08-11T22:09:22.335Z,2.70
2022-08-11T22:12:30.107Z,2.70
2022-08-11T22:15:14.404Z,3.67
2022-08-11T22:18:00.078Z,3.47
2022-08-11T22:20:46.393Z,2.97
2022-08-11T22:23:36.970Z,3.10
2022-08-11T22:26:23.207Z,3.30
2022-08-11T22:29:09.851Z,2.90
2022-08-11T22:31:57.413Z,3.10
2022-08-11T22:34:51.833Z,3.27
2022-08-11T22:37:40.298Z,2.93
2022-08-11T22:40:27.881Z,2.80
2022-08-11T22:43:13.347Z,2.87
2022-08-11T22:45:58.861Z,3.07
2022-08-11T22:48:48.177Z,3.43
2022-08-11T22:51:34.386Z,2.80
2022-08-11T22:54:21.665Z,2.70
2022-08-11T22:57:07.556Z,3.43
2022-08-11T22:59:55.140Z,3.23
2022-08-11T23:02:40.860Z,3.10
2022-08-11T23:05:27.185Z,3.17
2022-08-11T23:08:15.193Z,2.90
2022-08-11T23:11:01.208Z,3.00
2022-08-11T23:13:48.813Z,3.27
2022-08-11T23:16:35.129Z,3.23
2022-08-11T23:20:06.485Z,3.30
2022-08-11T23:22:49.326Z,3.10
2022-08-11T23:25:32.779Z,3.77
2022-08-11T23:28:20.210Z,2.90
2022-08-11T23:31:08.370Z,3.37
2022-08-11T23:33:58.356Z,2.90
2022-08-11T23:36:47.067Z,2.93
2022-08-11T23:39:33.850Z,3.03
2022-08-11T23:42:19.521Z,2.80
2022-08-11T23:45:07.169Z,3.50
2022-08-11T23:47:57.838Z,3.40
2022-08-11T23:50:43.789Z,2.70
2022-08-11T23:53:30.917Z,3.43
2022-08-11T23:56:17.303Z,3.10
2022-08-11T23:59:09.100Z,4.13
